Sunset, Texas
Current Conditions -  °F | °C
As of 12:55 PM on Friday 24 Oct 2014 (Local Time) from K0F2 Reporting Station
Clear Clear  
Wind Chill: 80°   Ceiling: Unl
Heat Index: 81°   Visibility: 10mi
Dew Point: 62°   Wind: 8mph
Humidity: 56%   Direction: 190°S
Pressure: 30.13"   Gusts: NA
Location:  33.45°N, 97.77°W
Report Text: K0F2 241755Z AUTO 19007KT 10SM CLR 26/17 A3013 RMK AO2 T02640169 10264 20135
Loading
Personal Weather Stations






























Interactive Weather Map
Tropical Storm Tracking
New forecast layout! Learn more

10-Day Weather Forecast

Advertisements
Track Severe Weather on mobile